PORT of HALIFAX

Country: Canada Country: Canada (CA)
Latitude / Longitude: 44.66815° / -63.5961° Show on Map Show on Map
Local Time:  UTC-4
UN/LOCODE: CAHAL
Vessels in Port: 29
Expected Arrivals: 13

Recent Arrivals & Departures


Vessel Name
Arrival (UTC)
Arrival (LT)
Departure (UTC)
Departure (LT)
Vessel Type: Cargo Vessels  MARICHRISTINA 2014-11-01 00:43:00 2014-10-31 20:43:00
Vessel Type: Tugs, Pilots etc  CHEBUCTO PILOT 2014-11-01 00:20:00 2014-10-31 20:20:00
Vessel Type: Tugs, Pilots etc  CHEBUCTO PILOT 2014-10-31 22:19:00 2014-10-31 19:19:00 2014-10-31 23:20:00 2014-10-31 20:20:00
Vessel Type: Cargo Vessels  OCEANEX SANDERLING 2014-10-28 14:31:00 2014-10-28 11:31:00 2014-10-31 21:36:00 2014-10-31 18:36:00
Vessel Type: Cargo Vessels  FUSION 2014-10-31 12:28:00 2014-10-31 09:28:00 2014-10-31 21:05:00 2014-10-31 18:05:00
Vessel Type: Tugs, Pilots etc  CHEBUCTO PILOT 2014-10-31 20:21:00 2014-10-31 17:21:00 2014-10-31 21:04:00 2014-10-31 18:04:00
Vessel Type: Passenger Vessels  CRYSTAL SERENITY 2014-10-31 09:30:00 2014-10-31 06:30:00 2014-10-31 19:37:00 2014-10-31 16:37:00
Vessel Type: Tugs, Pilots etc  CHEBUCTO PILOT 2014-10-31 15:47:00 2014-10-31 12:47:00 2014-10-31 19:29:00 2014-10-31 16:29:00
ST.JEAN II 2014-10-31 18:09:00 2014-10-31 15:09:00
Vessel Type: Yachts & Others  EASTCOM 2014-10-31 17:08:00 2014-10-31 14:08:00

Expected Arrivals


Vessel Name
Scheduled Arrival (UTC)
Scheduled Arrival (LT)
Estimated Arrival (UTC)
Estimated Arrival (LT)
Vessel Type: Tugs, Pilots etc  SCOTIAN SEA 2014-10-31 12:00:00 2014-10-31 09:00:00
Vessel Type: Cargo Vessels  CAPRI 2014-10-31 16:00:00 2014-10-31 13:00:00
Vessel Type: Cargo Vessels  MAERSK PEMBROKE 2014-11-01 11:00:00 2014-11-01 07:00:00 2014-11-01 13:54:00 2014-11-01 09:54:00
Vessel Type: Cargo Vessels  CLIPPER HELVETIA 2014-11-01 20:00:00 2014-11-01 16:00:00 2014-11-02 14:09:00 2014-11-02 10:09:00
Vessel Type: Cargo Vessels  ATLANTIC CONVEYOR 2014-11-02 10:00:00 2014-11-02 06:00:00 2014-11-02 16:33:00 2014-11-02 12:33:00
Vessel Type: Cargo Vessels  NYK NEBULA 2014-11-03 02:30:00 2014-11-02 22:30:00 2014-11-03 10:01:00 2014-11-03 06:01:00
Vessel Type: Cargo Vessels  ATLANTIC COMPASS 2014-11-03 15:00:00 2014-11-03 11:00:00 2014-11-04 10:36:00 2014-11-04 06:36:00
Vessel Type: Cargo Vessels  MIGNON 2014-11-04 05:00:00 2014-11-04 01:00:00 2014-11-04 07:36:00 2014-11-04 03:36:00
Vessel Type: Cargo Vessels  OOCL VANCOUVER 2014-11-04 07:00:00 2014-11-04 03:00:00 2014-11-04 13:16:00 2014-11-04 09:16:00
Vessel Type: Cargo Vessels  ZIM LUANDA 2014-11-05 06:00:00 2014-11-05 02:00:00 2014-11-05 03:46:00 2014-11-04 23:46:00

Wind Forecast


    
Time (UTC)
Speed
Direction
Temperature
2014-11-01 00:00:00 9 knots 66° 9°C
2014-11-01 03:00:00 12 knots 59° 9°C
2014-11-01 06:00:00 14 knots 54° 8°C
2014-11-01 09:00:00 18 knots 52° 8°C
2014-11-01 12:00:00 20 knots 44° 8°C
2014-11-01 15:00:00 21 knots 47° 8°C
2014-11-01 18:00:00 22 knots 48° 8°C
2014-11-01 21:00:00 21 knots 40° 7°C
2014-11-02 00:00:00 18 knots 51° 8°C
2014-11-02 03:00:00 16 knots 51° 10°C
2014-11-02 06:00:00 4 knots 74° 13°C
2014-11-02 09:00:00 2 knots 172° 14°C
2014-11-02 12:00:00 5 knots 55° 15°C
2014-11-02 15:00:00 15 knots 80° 16°C
2014-11-02 18:00:00 22 knots 169° 17°C
2014-11-02 21:00:00 20 knots 166° 16°C
2014-11-03 00:00:00 27 knots 193° 14°C